sensor_id;sensor_type;location;lat;lon;timestamp;P1;durP1;ratioP1;P2;durP2;ratioP2
23594;SDS011;11975;47.674;9.472;2022-09-09T00:09:47;24.60;;;23.20;;
23594;SDS011;11975;47.674;9.472;2022-09-09T00:12:16;24.83;;;23.42;;
23594;SDS011;11975;47.674;9.472;2022-09-09T00:14:52;24.40;;;23.00;;
23594;SDS011;11975;47.674;9.472;2022-09-09T00:19:50;24.75;;;23.25;;
23594;SDS011;11975;47.674;9.472;2022-09-09T00:22:29;23.90;;;22.55;;
23594;SDS011;11975;47.674;9.472;2022-09-09T00:28:02;24.27;;;22.88;;
23594;SDS011;11975;47.674;9.472;2022-09-09T00:30:31;23.73;;;22.42;;
23594;SDS011;11975;47.674;9.472;2022-09-09T00:32:59;23.95;;;22.63;;
23594;SDS011;11975;47.674;9.472;2022-09-09T00:35:28;23.63;;;22.33;;
23594;SDS011;11975;47.674;9.472;2022-09-09T00:38:10;23.48;;;22.17;;
23594;SDS011;11975;47.674;9.472;2022-09-09T00:41:24;23.45;;;22.15;;
23594;SDS011;11975;47.674;9.472;2022-09-09T00:43:57;23.20;;;21.90;;
23594;SDS011;11975;47.674;9.472;2022-09-09T00:46:32;23.58;;;22.20;;
23594;SDS011;11975;47.674;9.472;2022-09-09T00:49:12;24.40;;;23.00;;
23594;SDS011;11975;47.674;9.472;2022-09-09T00:51:51;24.60;;;23.20;;
23594;SDS011;11975;47.674;9.472;2022-09-09T00:59:52;23.52;;;22.23;;
23594;SDS011;11975;47.674;9.472;2022-09-09T01:02:28;25.73;;;23.42;;
23594;SDS011;11975;47.674;9.472;2022-09-09T01:04:57;25.88;;;24.38;;
23594;SDS011;11975;47.674;9.472;2022-09-09T01:07:30;24.45;;;23.05;;
23594;SDS011;11975;47.674;9.472;2022-09-09T01:09:57;24.40;;;23.02;;
23594;SDS011;11975;47.674;9.472;2022-09-09T01:15:11;23.98;;;22.65;;
23594;SDS011;11975;47.674;9.472;2022-09-09T01:20:45;24.05;;;22.65;;
23594;SDS011;11975;47.674;9.472;2022-09-09T01:28:43;23.88;;;22.58;;
23594;SDS011;11975;47.674;9.472;2022-09-09T01:31:11;23.90;;;22.60;;
23594;SDS011;11975;47.674;9.472;2022-09-09T01:33:41;24.90;;;23.42;;
23594;SDS011;11975;47.674;9.472;2022-09-09T01:36:12;23.70;;;22.40;;
23594;SDS011;11975;47.674;9.472;2022-09-09T01:38:41;23.90;;;22.60;;
23594;SDS011;11975;47.674;9.472;2022-09-09T01:41:07;24.20;;;22.80;;
23594;SDS011;11975;47.674;9.472;2022-09-09T01:43:33;22.77;;;21.48;;
23594;SDS011;11975;47.674;9.472;2022-09-09T01:45:59;23.88;;;22.58;;
23594;SDS011;11975;47.674;9.472;2022-09-09T01:48:27;24.38;;;22.98;;
23594;SDS011;11975;47.674;9.472;2022-09-09T01:50:53;24.50;;;23.10;;
23594;SDS011;11975;47.674;9.472;2022-09-09T01:53:19;24.40;;;23.00;;
23594;SDS011;11975;47.674;9.472;2022-09-09T01:56:07;23.73;;;22.42;;
23594;SDS011;11975;47.674;9.472;2022-09-09T02:01:34;24.15;;;22.75;;
23594;SDS011;11975;47.674;9.472;2022-09-09T02:04:03;24.60;;;23.23;;
23594;SDS011;11975;47.674;9.472;2022-09-09T02:06:47;23.63;;;22.33;;
23594;SDS011;11975;47.674;9.472;2022-09-09T02:09:14;24.15;;;22.80;;
23594;SDS011;11975;47.674;9.472;2022-09-09T02:11:44;24.90;;;23.50;;
23594;SDS011;11975;47.674;9.472;2022-09-09T02:14:16;24.25;;;22.85;;
23594;SDS011;11975;47.674;9.472;2022-09-09T02:16:51;24.48;;;23.10;;
23594;SDS011;11975;47.674;9.472;2022-09-09T02:19:21;23.27;;;21.98;;
23594;SDS011;11975;47.674;9.472;2022-09-09T02:21:52;24.30;;;22.92;;
23594;SDS011;11975;47.674;9.472;2022-09-09T02:24:20;24.00;;;22.65;;
23594;SDS011;11975;47.674;9.472;2022-09-09T02:26:47;23.35;;;22.05;;
23594;SDS011;11975;47.674;9.472;2022-09-09T02:29:17;24.05;;;22.65;;
23594;SDS011;11975;47.674;9.472;2022-09-09T02:31:45;23.88;;;22.55;;
23594;SDS011;11975;47.674;9.472;2022-09-09T02:36:38;23.15;;;21.85;;
23594;SDS011;11975;47.674;9.472;2022-09-09T02:39:06;23.67;;;22.38;;
23594;SDS011;11975;47.674;9.472;2022-09-09T02:41:34;24.80;;;23.40;;
23594;SDS011;11975;47.674;9.472;2022-09-09T02:44:01;25.50;;;24.00;;
23594;SDS011;11975;47.674;9.472;2022-09-09T02:46:52;27.35;;;25.80;;
23594;SDS011;11975;47.674;9.472;2022-09-09T02:49:44;29.35;;;27.70;;
23594;SDS011;11975;47.674;9.472;2022-09-09T02:52:15;28.20;;;26.60;;
23594;SDS011;11975;47.674;9.472;2022-09-09T02:54:44;28.88;;;27.23;;
23594;SDS011;11975;47.674;9.472;2022-09-09T02:57:21;28.77;;;27.13;;
23594;SDS011;11975;47.674;9.472;2022-09-09T02:59:49;26.73;;;25.25;;
23594;SDS011;11975;47.674;9.472;2022-09-09T03:02:17;28.05;;;26.48;;
23594;SDS011;11975;47.674;9.472;2022-09-09T03:04:44;27.67;;;26.05;;
23594;SDS011;11975;47.674;9.472;2022-09-09T03:07:10;27.98;;;26.40;;
23594;SDS011;11975;47.674;9.472;2022-09-09T03:09:36;27.90;;;26.33;;
23594;SDS011;11975;47.674;9.472;2022-09-09T03:12:02;26.52;;;25.02;;
23594;SDS011;11975;47.674;9.472;2022-09-09T03:14:29;27.00;;;25.50;;
23594;SDS011;11975;47.674;9.472;2022-09-09T03:16:55;27.50;;;25.90;;
23594;SDS011;11975;47.674;9.472;2022-09-09T03:19:23;27.25;;;25.70;;
23594;SDS011;11975;47.674;9.472;2022-09-09T03:21:50;29.40;;;27.73;;
23594;SDS011;11975;47.674;9.472;2022-09-09T03:24:16;29.27;;;27.65;;
23594;SDS011;11975;47.674;9.472;2022-09-09T03:26:42;28.63;;;26.92;;
23594;SDS011;11975;47.674;9.472;2022-09-09T03:29:11;28.30;;;26.70;;
23594;SDS011;11975;47.674;9.472;2022-09-09T03:31:38;28.30;;;26.70;;
23594;SDS011;11975;47.674;9.472;2022-09-09T03:34:05;27.23;;;25.67;;
23594;SDS011;11975;47.674;9.472;2022-09-09T03:36:31;28.30;;;26.70;;
23594;SDS011;11975;47.674;9.472;2022-09-09T03:38:58;28.13;;;26.55;;
23594;SDS011;11975;47.674;9.472;2022-09-09T03:41:24;27.77;;;26.17;;
23594;SDS011;11975;47.674;9.472;2022-09-09T03:43:50;28.17;;;26.58;;
23594;SDS011;11975;47.674;9.472;2022-09-09T03:46:17;28.13;;;26.52;;
23594;SDS011;11975;47.674;9.472;2022-09-09T03:48:44;28.23;;;26.63;;
23594;SDS011;11975;47.674;9.472;2022-09-09T03:51:10;28.50;;;26.80;;
23594;SDS011;11975;47.674;9.472;2022-09-09T03:53:36;28.95;;;27.33;;
23594;SDS011;11975;47.674;9.472;2022-09-09T03:56:03;27.95;;;26.38;;
23594;SDS011;11975;47.674;9.472;2022-09-09T03:58:29;28.63;;;27.02;;
23594;SDS011;11975;47.674;9.472;2022-09-09T04:00:59;26.63;;;25.13;;
23594;SDS011;11975;47.674;9.472;2022-09-09T04:03:27;26.83;;;25.33;;
23594;SDS011;11975;47.674;9.472;2022-09-09T04:05:54;27.67;;;26.08;;
23594;SDS011;11975;47.674;9.472;2022-09-09T04:08:21;26.40;;;24.90;;
23594;SDS011;11975;47.674;9.472;2022-09-09T04:10:48;28.00;;;26.42;;
23594;SDS011;11975;47.674;9.472;2022-09-09T04:13:15;28.55;;;26.95;;
23594;SDS011;11975;47.674;9.472;2022-09-09T04:18:08;27.90;;;26.30;;
23594;SDS011;11975;47.674;9.472;2022-09-09T04:20:34;28.95;;;27.33;;
23594;SDS011;11975;47.674;9.472;2022-09-09T04:23:01;29.95;;;28.15;;
23594;SDS011;11975;47.674;9.472;2022-09-09T04:25:27;27.90;;;26.33;;
23594;SDS011;11975;47.674;9.472;2022-09-09T04:27:56;27.98;;;26.38;;
23594;SDS011;11975;47.674;9.472;2022-09-09T04:30:23;29.40;;;27.73;;
23594;SDS011;11975;47.674;9.472;2022-09-09T04:32:49;28.27;;;26.67;;
23594;SDS011;11975;47.674;9.472;2022-09-09T04:35:15;26.67;;;25.15;;
23594;SDS011;11975;47.674;9.472;2022-09-09T04:37:41;25.67;;;24.17;;
23594;SDS011;11975;47.674;9.472;2022-09-09T04:40:07;24.67;;;23.27;;
23594;SDS011;11975;47.674;9.472;2022-09-09T04:42:35;25.27;;;23.85;;
23594;SDS011;11975;47.674;9.472;2022-09-09T04:45:02;30.33;;;28.55;;
23594;SDS011;11975;47.674;9.472;2022-09-09T04:47:28;26.60;;;25.03;;
23594;SDS011;11975;47.674;9.472;2022-09-09T04:49:54;27.23;;;25.70;;
23594;SDS011;11975;47.674;9.472;2022-09-09T04:52:20;29.05;;;27.38;;
23594;SDS011;11975;47.674;9.472;2022-09-09T04:54:46;26.40;;;24.92;;
23594;SDS011;11975;47.674;9.472;2022-09-09T04:57:13;23.90;;;22.50;;
23594;SDS011;11975;47.674;9.472;2022-09-09T04:59:39;26.15;;;24.02;;
23594;SDS011;11975;47.674;9.472;2022-09-09T05:02:05;24.15;;;22.77;;
23594;SDS011;11975;47.674;9.472;2022-09-09T05:04:31;24.10;;;22.70;;
23594;SDS011;11975;47.674;9.472;2022-09-09T05:06:58;23.92;;;22.63;;
23594;SDS011;11975;47.674;9.472;2022-09-09T05:09:24;23.98;;;22.58;;
23594;SDS011;11975;47.674;9.472;2022-09-09T05:11:50;23.95;;;22.55;;
23594;SDS011;11975;47.674;9.472;2022-09-09T05:14:16;25.90;;;24.45;;
23594;SDS011;11975;47.674;9.472;2022-09-09T05:16:45;28.00;;;26.40;;
23594;SDS011;11975;47.674;9.472;2022-09-09T05:19:12;27.70;;;26.13;;
23594;SDS011;11975;47.674;9.472;2022-09-09T05:21:38;26.58;;;24.98;;
23594;SDS011;11975;47.674;9.472;2022-09-09T05:24:04;24.55;;;23.13;;
23594;SDS011;11975;47.674;9.472;2022-09-09T05:26:30;27.50;;;25.95;;
23594;SDS011;11975;47.674;9.472;2022-09-09T05:28:57;28.10;;;26.52;;
23594;SDS011;11975;47.674;9.472;2022-09-09T05:31:24;28.35;;;26.73;;
23594;SDS011;11975;47.674;9.472;2022-09-09T05:33:53;29.80;;;28.13;;
23594;SDS011;11975;47.674;9.472;2022-09-09T05:36:20;25.63;;;24.17;;
23594;SDS011;11975;47.674;9.472;2022-09-09T05:38:46;29.60;;;27.90;;
23594;SDS011;11975;47.674;9.472;2022-09-09T05:41:13;22.67;;;21.38;;
23594;SDS011;11975;47.674;9.472;2022-09-09T05:43:41;23.17;;;21.88;;
23594;SDS011;11975;47.674;9.472;2022-09-09T05:46:16;23.45;;;22.05;;
23594;SDS011;11975;47.674;9.472;2022-09-09T05:48:44;22.75;;;21.40;;
23594;SDS011;11975;47.674;9.472;2022-09-09T05:51:16;23.92;;;22.58;;
23594;SDS011;11975;47.674;9.472;2022-09-09T05:53:44;24.48;;;22.80;;
23594;SDS011;11975;47.674;9.472;2022-09-09T05:56:12;25.10;;;23.70;;
23594;SDS011;11975;47.674;9.472;2022-09-09T05:58:39;25.98;;;24.52;;
23594;SDS011;11975;47.674;9.472;2022-09-09T06:06:04;22.15;;;20.95;;
23594;SDS011;11975;47.674;9.472;2022-09-09T06:08:34;23.88;;;22.55;;
23594;SDS011;11975;47.674;9.472;2022-09-09T06:11:05;26.33;;;24.83;;
23594;SDS011;11975;47.674;9.472;2022-09-09T06:13:32;24.08;;;22.67;;
23594;SDS011;11975;47.674;9.472;2022-09-09T06:15:58;25.23;;;23.83;;
23594;SDS011;11975;47.674;9.472;2022-09-09T06:18:24;25.17;;;23.52;;
23594;SDS011;11975;47.674;9.472;2022-09-09T06:23:20;25.63;;;24.17;;
23594;SDS011;11975;47.674;9.472;2022-09-09T06:25:46;29.05;;;27.38;;
23594;SDS011;11975;47.674;9.472;2022-09-09T06:28:12;26.30;;;24.80;;
23594;SDS011;11975;47.674;9.472;2022-09-09T06:30:39;22.40;;;21.10;;
23594;SDS011;11975;47.674;9.472;2022-09-09T06:33:05;27.90;;;26.30;;
23594;SDS011;11975;47.674;9.472;2022-09-09T06:35:31;22.77;;;21.50;;
23594;SDS011;11975;47.674;9.472;2022-09-09T06:37:57;22.98;;;21.70;;
23594;SDS011;11975;47.674;9.472;2022-09-09T06:40:24;24.15;;;22.83;;
23594;SDS011;11975;47.674;9.472;2022-09-09T06:42:50;31.73;;;29.92;;
23594;SDS011;11975;47.674;9.472;2022-09-09T06:45:16;23.95;;;22.63;;
23594;SDS011;11975;47.674;9.472;2022-09-09T06:47:43;24.80;;;23.40;;
23594;SDS011;11975;47.674;9.472;2022-09-09T06:50:10;21.42;;;20.23;;
23594;SDS011;11975;47.674;9.472;2022-09-09T06:52:36;23.25;;;21.95;;
23594;SDS011;11975;47.674;9.472;2022-09-09T06:55:03;24.00;;;22.50;;
23594;SDS011;11975;47.674;9.472;2022-09-09T06:57:29;24.77;;;23.27;;
23594;SDS011;11975;47.674;9.472;2022-09-09T06:59:55;22.20;;;20.90;;
23594;SDS011;11975;47.674;9.472;2022-09-09T07:02:21;21.70;;;20.40;;
23594;SDS011;11975;47.674;9.472;2022-09-09T07:04:47;23.13;;;21.83;;
23594;SDS011;11975;47.674;9.472;2022-09-09T07:07:13;24.55;;;23.15;;
23594;SDS011;11975;47.674;9.472;2022-09-09T07:09:40;24.10;;;22.70;;
23594;SDS011;11975;47.674;9.472;2022-09-09T07:12:06;24.23;;;22.88;;
23594;SDS011;11975;47.674;9.472;2022-09-09T07:14:32;26.40;;;24.58;;
23594;SDS011;11975;47.674;9.472;2022-09-09T07:16:59;25.52;;;24.13;;
23594;SDS011;11975;47.674;9.472;2022-09-09T07:19:25;23.83;;;22.42;;
23594;SDS011;11975;47.674;9.472;2022-09-09T07:21:51;21.85;;;20.55;;
23594;SDS011;11975;47.674;9.472;2022-09-09T07:24:17;20.58;;;19.40;;
23594;SDS011;11975;47.674;9.472;2022-09-09T07:26:43;19.52;;;18.42;;
23594;SDS011;11975;47.674;9.472;2022-09-09T07:29:09;19.40;;;18.30;;
23594;SDS011;11975;47.674;9.472;2022-09-09T07:31:36;20.73;;;19.55;;
23594;SDS011;11975;47.674;9.472;2022-09-09T07:34:03;21.08;;;19.88;;
23594;SDS011;11975;47.674;9.472;2022-09-09T07:36:30;21.40;;;20.20;;
23594;SDS011;11975;47.674;9.472;2022-09-09T07:39:04;21.00;;;19.80;;
23594;SDS011;11975;47.674;9.472;2022-09-09T07:41:41;19.85;;;18.75;;
23594;SDS011;11975;47.674;9.472;2022-09-09T07:44:10;20.27;;;19.17;;
23594;SDS011;11975;47.674;9.472;2022-09-09T07:46:37;19.75;;;18.65;;
23594;SDS011;11975;47.674;9.472;2022-09-09T07:49:07;19.67;;;18.58;;
23594;SDS011;11975;47.674;9.472;2022-09-09T07:51:35;19.90;;;18.80;;
23594;SDS011;11975;47.674;9.472;2022-09-09T07:54:03;19.90;;;18.80;;
23594;SDS011;11975;47.674;9.472;2022-09-09T07:56:31;19.25;;;18.02;;
23594;SDS011;11975;47.674;9.472;2022-09-09T07:58:57;18.57;;;17.57;;
23594;SDS011;11975;47.674;9.472;2022-09-09T08:01:34;17.70;;;16.70;;
23594;SDS011;11975;47.674;9.472;2022-09-09T08:04:05;17.92;;;16.92;;
23594;SDS011;11975;47.674;9.472;2022-09-09T08:06:36;17.63;;;16.63;;
23594;SDS011;11975;47.674;9.472;2022-09-09T08:09:04;16.70;;;15.80;;
23594;SDS011;11975;47.674;9.472;2022-09-09T08:11:32;17.10;;;16.20;;
23594;SDS011;11975;47.674;9.472;2022-09-09T08:13:58;17.90;;;16.90;;
23594;SDS011;11975;47.674;9.472;2022-09-09T08:16:26;17.45;;;16.48;;
23594;SDS011;11975;47.674;9.472;2022-09-09T08:18:53;17.60;;;16.60;;
23594;SDS011;11975;47.674;9.472;2022-09-09T08:21:21;17.02;;;16.13;;
23594;SDS011;11975;47.674;9.472;2022-09-09T08:23:50;17.63;;;16.63;;
23594;SDS011;11975;47.674;9.472;2022-09-09T08:26:19;17.60;;;16.60;;
23594;SDS011;11975;47.674;9.472;2022-09-09T08:28:53;17.23;;;16.23;;
23594;SDS011;11975;47.674;9.472;2022-09-09T08:31:25;17.75;;;16.75;;
23594;SDS011;11975;47.674;9.472;2022-09-09T08:33:56;16.40;;;15.50;;
23594;SDS011;11975;47.674;9.472;2022-09-09T08:36:23;17.33;;;16.35;;
23594;SDS011;11975;47.674;9.472;2022-09-09T08:38:51;16.92;;;16.02;;
23594;SDS011;11975;47.674;9.472;2022-09-09T08:41:32;17.95;;;16.90;;
23594;SDS011;11975;47.674;9.472;2022-09-09T08:47:13;18.52;;;17.45;;
23594;SDS011;11975;47.674;9.472;2022-09-09T08:50:21;17.88;;;16.88;;
23594;SDS011;11975;47.674;9.472;2022-09-09T08:53:04;18.83;;;17.80;;
23594;SDS011;11975;47.674;9.472;2022-09-09T08:55:57;18.65;;;17.55;;
23594;SDS011;11975;47.674;9.472;2022-09-09T08:58:27;14.95;;;14.15;;
23594;SDS011;11975;47.674;9.472;2022-09-09T09:11:48;17.27;;;16.27;;
23594;SDS011;11975;47.674;9.472;2022-09-09T09:14:25;16.45;;;15.55;;
23594;SDS011;11975;47.674;9.472;2022-09-09T09:16:58;17.65;;;16.65;;
23594;SDS011;11975;47.674;9.472;2022-09-09T09:19:32;16.60;;;15.70;;
23594;SDS011;11975;47.674;9.472;2022-09-09T09:22:04;17.98;;;16.98;;
23594;SDS011;11975;47.674;9.472;2022-09-09T09:27:31;17.00;;;16.10;;
23594;SDS011;11975;47.674;9.472;2022-09-09T09:29:57;15.27;;;14.48;;
23594;SDS011;11975;47.674;9.472;2022-09-09T09:32:25;14.40;;;13.60;;
23594;SDS011;11975;47.674;9.472;2022-09-09T09:34:56;13.80;;;13.00;;
23594;SDS011;11975;47.674;9.472;2022-09-09T09:37:27;15.13;;;14.32;;
23594;SDS011;11975;47.674;9.472;2022-09-09T09:39:55;15.20;;;14.40;;
23594;SDS011;11975;47.674;9.472;2022-09-09T09:42:20;13.88;;;13.07;;
23594;SDS011;11975;47.674;9.472;2022-09-09T09:44:46;14.07;;;13.27;;
23594;SDS011;11975;47.674;9.472;2022-09-09T09:47:14;14.70;;;13.90;;
23594;SDS011;11975;47.674;9.472;2022-09-09T09:49:51;14.25;;;13.45;;
23594;SDS011;11975;47.674;9.472;2022-09-09T09:52:28;14.55;;;13.75;;
23594;SDS011;11975;47.674;9.472;2022-09-09T09:54:55;14.48;;;13.68;;
23594;SDS011;11975;47.674;9.472;2022-09-09T09:57:26;14.20;;;13.40;;
23594;SDS011;11975;47.674;9.472;2022-09-09T10:02:41;14.57;;;13.77;;
23594;SDS011;11975;47.674;9.472;2022-09-09T10:05:13;17.02;;;15.93;;
23594;SDS011;11975;47.674;9.472;2022-09-09T10:07:41;16.75;;;15.85;;
23594;SDS011;11975;47.674;9.472;2022-09-09T10:10:12;16.20;;;15.30;;
23594;SDS011;11975;47.674;9.472;2022-09-09T10:12:57;14.20;;;13.40;;
23594;SDS011;11975;47.674;9.472;2022-09-09T10:15:41;13.70;;;13.00;;
23594;SDS011;11975;47.674;9.472;2022-09-09T10:18:21;14.18;;;13.38;;
23594;SDS011;11975;47.674;9.472;2022-09-09T10:23:59;14.32;;;13.52;;
23594;SDS011;11975;47.674;9.472;2022-09-09T10:26:45;14.18;;;13.38;;
23594;SDS011;11975;47.674;9.472;2022-09-09T10:34:58;12.32;;;11.65;;
23594;SDS011;11975;47.674;9.472;2022-09-09T10:40:33;13.90;;;13.10;;
23594;SDS011;11975;47.674;9.472;2022-09-09T10:52:01;13.45;;;12.75;;
23594;SDS011;11975;47.674;9.472;2022-09-09T10:57:24;13.38;;;12.68;;
23594;SDS011;11975;47.674;9.472;2022-09-09T11:00:19;13.50;;;12.80;;
23594;SDS011;11975;47.674;9.472;2022-09-09T11:02:45;14.52;;;13.73;;
23594;SDS011;11975;47.674;9.472;2022-09-09T11:05:19;14.13;;;13.32;;
23594;SDS011;11975;47.674;9.472;2022-09-09T11:08:10;14.50;;;13.70;;
23594;SDS011;11975;47.674;9.472;2022-09-09T11:13:24;14.25;;;13.45;;
23594;SDS011;11975;47.674;9.472;2022-09-09T11:19:02;16.15;;;15.25;;
23594;SDS011;11975;47.674;9.472;2022-09-09T11:21:38;15.93;;;14.93;;
23594;SDS011;11975;47.674;9.472;2022-09-09T11:24:14;16.02;;;15.13;;
23594;SDS011;11975;47.674;9.472;2022-09-09T11:26:50;16.93;;;16.00;;
23594;SDS011;11975;47.674;9.472;2022-09-09T11:29:30;18.10;;;17.10;;
23594;SDS011;11975;47.674;9.472;2022-09-09T11:32:10;16.23;;;15.32;;
23594;SDS011;11975;47.674;9.472;2022-09-09T11:34:53;14.75;;;13.95;;
23594;SDS011;11975;47.674;9.472;2022-09-09T11:37:49;14.20;;;13.40;;
23594;SDS011;11975;47.674;9.472;2022-09-09T11:40:28;13.70;;;13.00;;
23594;SDS011;11975;47.674;9.472;2022-09-09T11:45:29;14.82;;;14.02;;
23594;SDS011;11975;47.674;9.472;2022-09-09T11:47:56;14.43;;;13.32;;
23594;SDS011;11975;47.674;9.472;2022-09-09T11:52:49;14.98;;;14.18;;
23594;SDS011;11975;47.674;9.472;2022-09-09T11:57:58;14.80;;;13.90;;
23594;SDS011;11975;47.674;9.472;2022-09-09T12:00:41;14.10;;;13.30;;
23594;SDS011;11975;47.674;9.472;2022-09-09T12:05:57;14.50;;;13.70;;
23594;SDS011;11975;47.674;9.472;2022-09-09T12:08:27;14.60;;;13.80;;
23594;SDS011;11975;47.674;9.472;2022-09-09T12:10:55;13.77;;;13.07;;
23594;SDS011;11975;47.674;9.472;2022-09-09T12:13:23;13.93;;;13.18;;
23594;SDS011;11975;47.674;9.472;2022-09-09T12:15:51;13.27;;;12.57;;
23594;SDS011;11975;47.674;9.472;2022-09-09T12:18:38;13.43;;;12.73;;
23594;SDS011;11975;47.674;9.472;2022-09-09T12:24:25;13.95;;;13.20;;
23594;SDS011;11975;47.674;9.472;2022-09-09T12:27:05;13.63;;;12.90;;
23594;SDS011;11975;47.674;9.472;2022-09-09T12:32:16;12.90;;;12.20;;
23594;SDS011;11975;47.674;9.472;2022-09-09T12:34:50;13.85;;;13.05;;
23594;SDS011;11975;47.674;9.472;2022-09-09T12:37:38;13.23;;;12.52;;
23594;SDS011;11975;47.674;9.472;2022-09-09T12:40:21;13.18;;;12.48;;
23594;SDS011;11975;47.674;9.472;2022-09-09T12:42:47;12.90;;;12.20;;
23594;SDS011;11975;47.674;9.472;2022-09-09T12:50:21;13.73;;;13.02;;
23594;SDS011;11975;47.674;9.472;2022-09-09T12:52:54;13.32;;;12.63;;
23594;SDS011;11975;47.674;9.472;2022-09-09T12:55:23;13.82;;;13.13;;
23594;SDS011;11975;47.674;9.472;2022-09-09T12:57:50;13.57;;;12.88;;
23594;SDS011;11975;47.674;9.472;2022-09-09T13:05:28;13.45;;;12.75;;
23594;SDS011;11975;47.674;9.472;2022-09-09T13:08:00;13.80;;;13.10;;
23594;SDS011;11975;47.674;9.472;2022-09-09T13:10:28;13.27;;;12.57;;
23594;SDS011;11975;47.674;9.472;2022-09-09T13:12:55;13.52;;;12.82;;
23594;SDS011;11975;47.674;9.472;2022-09-09T13:17:53;13.10;;;12.40;;
23594;SDS011;11975;47.674;9.472;2022-09-09T13:20:21;14.07;;;13.27;;
23594;SDS011;11975;47.674;9.472;2022-09-09T13:22:48;14.15;;;13.35;;
23594;SDS011;11975;47.674;9.472;2022-09-09T13:27:50;14.38;;;13.57;;
23594;SDS011;11975;47.674;9.472;2022-09-09T13:30:29;14.80;;;13.90;;
23594;SDS011;11975;47.674;9.472;2022-09-09T13:33:22;13.45;;;12.75;;
23594;SDS011;11975;47.674;9.472;2022-09-09T13:38:24;13.97;;;13.20;;
23594;SDS011;11975;47.674;9.472;2022-09-09T13:40:54;13.82;;;13.07;;
23594;SDS011;11975;47.674;9.472;2022-09-09T13:43:23;13.35;;;12.65;;
23594;SDS011;11975;47.674;9.472;2022-09-09T13:46:04;13.77;;;13.07;;
23594;SDS011;11975;47.674;9.472;2022-09-09T13:48:53;14.10;;;13.32;;
23594;SDS011;11975;47.674;9.472;2022-09-09T13:51:28;14.57;;;13.77;;
23594;SDS011;11975;47.674;9.472;2022-09-09T13:54:11;13.32;;;12.63;;
23594;SDS011;11975;47.674;9.472;2022-09-09T13:56:38;14.27;;;13.48;;
23594;SDS011;11975;47.674;9.472;2022-09-09T13:59:09;14.27;;;13.48;;
23594;SDS011;11975;47.674;9.472;2022-09-09T14:01:36;13.95;;;13.20;;
23594;SDS011;11975;47.674;9.472;2022-09-09T14:04:03;16.10;;;15.00;;
23594;SDS011;11975;47.674;9.472;2022-09-09T14:06:30;14.05;;;13.25;;
23594;SDS011;11975;47.674;9.472;2022-09-09T14:08:57;14.40;;;13.60;;
23594;SDS011;11975;47.674;9.472;2022-09-09T14:11:24;13.77;;;13.07;;
23594;SDS011;11975;47.674;9.472;2022-09-09T14:13:50;13.68;;;12.88;;
23594;SDS011;11975;47.674;9.472;2022-09-09T14:16:16;14.13;;;13.32;;
23594;SDS011;11975;47.674;9.472;2022-09-09T14:18:43;14.45;;;13.65;;
23594;SDS011;11975;47.674;9.472;2022-09-09T14:21:10;14.73;;;13.93;;
23594;SDS011;11975;47.674;9.472;2022-09-09T14:23:36;13.50;;;12.70;;
23594;SDS011;11975;47.674;9.472;2022-09-09T14:26:04;14.23;;;13.43;;
23594;SDS011;11975;47.674;9.472;2022-09-09T14:28:30;14.43;;;13.63;;
23594;SDS011;11975;47.674;9.472;2022-09-09T14:30:59;14.35;;;13.55;;
23594;SDS011;11975;47.674;9.472;2022-09-09T14:33:26;13.75;;;13.02;;
23594;SDS011;11975;47.674;9.472;2022-09-09T14:35:59;14.13;;;13.32;;
23594;SDS011;11975;47.674;9.472;2022-09-09T14:38:33;14.45;;;13.65;;
23594;SDS011;11975;47.674;9.472;2022-09-09T14:41:04;13.73;;;13.02;;
23594;SDS011;11975;47.674;9.472;2022-09-09T14:43:30;14.65;;;13.85;;
23594;SDS011;11975;47.674;9.472;2022-09-09T14:46:04;14.20;;;13.40;;
23594;SDS011;11975;47.674;9.472;2022-09-09T14:48:31;14.13;;;13.32;;
23594;SDS011;11975;47.674;9.472;2022-09-09T14:50:57;14.20;;;13.40;;
23594;SDS011;11975;47.674;9.472;2022-09-09T14:53:40;13.65;;;12.95;;
23594;SDS011;11975;47.674;9.472;2022-09-09T14:56:07;14.63;;;13.82;;
23594;SDS011;11975;47.674;9.472;2022-09-09T14:58:37;14.60;;;13.80;;
23594;SDS011;11975;47.674;9.472;2022-09-09T15:01:04;14.27;;;13.48;;
23594;SDS011;11975;47.674;9.472;2022-09-09T15:03:31;14.73;;;13.93;;
23594;SDS011;11975;47.674;9.472;2022-09-09T15:05:57;14.18;;;13.38;;
23594;SDS011;11975;47.674;9.472;2022-09-09T15:08:24;14.02;;;13.25;;
23594;SDS011;11975;47.674;9.472;2022-09-09T15:10:58;13.80;;;13.05;;
23594;SDS011;11975;47.674;9.472;2022-09-09T15:13:24;13.75;;;12.98;;
23594;SDS011;11975;47.674;9.472;2022-09-09T15:15:50;14.37;;;13.57;;
23594;SDS011;11975;47.674;9.472;2022-09-09T15:18:16;14.15;;;13.35;;
23594;SDS011;11975;47.674;9.472;2022-09-09T15:20:45;13.98;;;13.20;;
23594;SDS011;11975;47.674;9.472;2022-09-09T15:23:12;14.23;;;13.43;;
23594;SDS011;11975;47.674;9.472;2022-09-09T15:25:38;14.30;;;13.50;;
23594;SDS011;11975;47.674;9.472;2022-09-09T15:28:04;13.98;;;13.18;;
23594;SDS011;11975;47.674;9.472;2022-09-09T15:30:30;14.63;;;13.82;;
23594;SDS011;11975;47.674;9.472;2022-09-09T15:32:55;13.68;;;12.98;;
23594;SDS011;11975;47.674;9.472;2022-09-09T15:35:21;14.02;;;13.23;;
23594;SDS011;11975;47.674;9.472;2022-09-09T15:37:47;14.85;;;14.05;;
23594;SDS011;11975;47.674;9.472;2022-09-09T15:40:13;15.43;;;14.60;;
23594;SDS011;11975;47.674;9.472;2022-09-09T15:42:39;16.67;;;15.77;;
23594;SDS011;11975;47.674;9.472;2022-09-09T15:45:05;16.95;;;16.02;;
23594;SDS011;11975;47.674;9.472;2022-09-09T15:47:32;18.20;;;17.20;;
23594;SDS011;11975;47.674;9.472;2022-09-09T15:49:58;17.55;;;16.58;;
23594;SDS011;11975;47.674;9.472;2022-09-09T15:52:24;18.17;;;17.17;;
23594;SDS011;11975;47.674;9.472;2022-09-09T15:54:50;15.75;;;14.85;;
23594;SDS011;11975;47.674;9.472;2022-09-09T15:57:16;15.97;;;14.63;;
23594;SDS011;11975;47.674;9.472;2022-09-09T15:59:42;16.23;;;15.32;;
23594;SDS011;11975;47.674;9.472;2022-09-09T16:02:09;15.52;;;14.65;;
23594;SDS011;11975;47.674;9.472;2022-09-09T16:04:35;16.58;;;15.63;;
23594;SDS011;11975;47.674;9.472;2022-09-09T16:07:02;17.73;;;16.73;;
23594;SDS011;11975;47.674;9.472;2022-09-09T16:09:29;18.75;;;17.65;;
23594;SDS011;11975;47.674;9.472;2022-09-09T16:11:56;18.27;;;17.27;;
23594;SDS011;11975;47.674;9.472;2022-09-09T16:14:23;16.90;;;16.00;;
23594;SDS011;11975;47.674;9.472;2022-09-09T16:16:51;16.60;;;15.70;;
23594;SDS011;11975;47.674;9.472;2022-09-09T16:19:16;17.27;;;16.17;;
23594;SDS011;11975;47.674;9.472;2022-09-09T16:21:43;17.90;;;16.90;;
23594;SDS011;11975;47.674;9.472;2022-09-09T16:24:11;17.80;;;16.80;;
23594;SDS011;11975;47.674;9.472;2022-09-09T16:26:41;18.27;;;17.27;;
23594;SDS011;11975;47.674;9.472;2022-09-09T16:29:10;20.45;;;19.33;;
23594;SDS011;11975;47.674;9.472;2022-09-09T16:34:03;16.87;;;15.97;;
23594;SDS011;11975;47.674;9.472;2022-09-09T16:36:32;17.25;;;16.25;;
23594;SDS011;11975;47.674;9.472;2022-09-09T16:39:05;18.15;;;17.15;;
23594;SDS011;11975;47.674;9.472;2022-09-09T16:41:32;16.33;;;15.43;;
23594;SDS011;11975;47.674;9.472;2022-09-09T16:43:59;17.75;;;16.75;;
23594;SDS011;11975;47.674;9.472;2022-09-09T16:46:28;18.27;;;17.17;;
23594;SDS011;11975;47.674;9.472;2022-09-09T16:48:55;20.00;;;18.90;;